Time;durP1;ratioP1;P1;durP2;ratioP2;P2;SDS_P1;SDS_P2;PMS_P1;PMS_P2;Temp;Humidity;BMP_temperature;BMP_pressure;BME280_temperature;BME280_humidity;BME280_pressure;Samples;Min_cycle;Max_cycle;Signal;HPM_P1;HPM_P2
2021/08/06 00:00:31;;;;;;;2.42;2.03;;;20.10;99.90;;;;;;2097144;28;20438;-68
2021/08/06 00:01:31;;;;;;;3.92;2.13;;;20.10;99.90;;;;;;2095849;28;20025;-68
2021/08/06 00:02:32;;;;;;;2.03;1.83;;;20.10;99.90;;;;;;2099290;28;20043;-68
2021/08/06 00:03:33;;;;;;;2.47;1.80;;;20.10;99.90;;;;;;2104111;28;20028;-68
2021/08/06 00:04:36;;;;;;;2.28;2.08;;;20.10;99.90;;;;;;2103315;28;20463;-68
2021/08/06 00:05:36;;;;;;;2.22;2.03;;;20.10;99.90;;;;;;2099833;28;20027;-68
2021/08/06 00:06:40;;;;;;;2.58;1.90;;;20.10;99.90;;;;;;2105645;28;20049;-68
2021/08/06 00:07:41;;;;;;;4.95;2.40;;;20.10;99.90;;;;;;2105378;28;20020;-68
2021/08/06 00:08:42;;;;;;;2.42;1.98;;;20.10;99.90;;;;;;2105420;28;20028;-68
2021/08/06 00:09:43;;;;;;;2.50;2.05;;;20.10;99.90;;;;;;2104300;28;20021;-68
2021/08/06 00:10:43;;;;;;;2.45;2.25;;;20.10;99.90;;;;;;2091724;28;20099;-68
2021/08/06 00:11:44;;;;;;;2.28;1.80;;;20.10;99.90;;;;;;2096365;28;20051;-68
2021/08/06 00:12:44;;;;;;;2.90;2.00;;;20.10;99.90;;;;;;2092759;28;20084;-68
2021/08/06 00:13:45;;;;;;;3.95;1.92;;;20.10;99.90;;;;;;2100229;28;20050;-68
2021/08/06 00:14:45;;;;;;;3.35;2.13;;;20.10;99.90;;;;;;2103944;28;20353;-68
2021/08/06 00:15:46;;;;;;;3.00;2.00;;;20.10;99.90;;;;;;2097169;28;20577;-68
2021/08/06 00:16:47;;;;;;;2.63;2.28;;;20.10;99.90;;;;;;2096907;28;20063;-68
2021/08/06 00:17:47;;;;;;;6.97;2.50;;;20.10;99.90;;;;;;2095668;28;20047;-68
2021/08/06 00:18:49;;;;;;;2.28;2.08;;;20.10;99.90;;;;;;2102086;28;20060;-68
2021/08/06 00:19:50;;;;;;;2.33;2.10;;;20.10;99.90;;;;;;2097497;28;20025;-68
2021/08/06 00:20:52;;;;;;;2.53;2.15;;;20.10;99.90;;;;;;2096945;28;20079;-68
2021/08/06 00:21:52;;;;;;;2.83;1.65;;;20.10;99.90;;;;;;2096892;28;20021;-68
2021/08/06 00:22:53;;;;;;;3.58;2.63;;;20.10;99.90;;;;;;2096733;28;20032;-68
2021/08/06 00:23:53;;;;;;;2.47;1.98;;;20.00;99.90;;;;;;2096882;28;20021;-67
2021/08/06 00:24:54;;;;;;;3.15;2.30;;;20.00;99.90;;;;;;2096626;28;20025;-67
2021/08/06 00:25:54;;;;;;;2.13;1.80;;;20.00;99.90;;;;;;2097019;28;20059;-68
2021/08/06 00:26:55;;;;;;;2.58;1.77;;;20.00;99.90;;;;;;2097040;28;20032;-68
2021/08/06 00:27:56;;;;;;;4.38;1.90;;;20.00;99.90;;;;;;2093782;28;20716;-68
2021/08/06 00:28:56;;;;;;;2.50;2.30;;;20.00;99.90;;;;;;2096591;28;20024;-68
2021/08/06 00:29:57;;;;;;;2.33;2.13;;;20.00;99.90;;;;;;2096948;28;20060;-68
2021/08/06 00:30:57;;;;;;;2.17;1.98;;;20.00;99.90;;;;;;2097144;28;20047;-68
2021/08/06 00:31:58;;;;;;;2.05;1.90;;;20.00;99.90;;;;;;2096257;28;20028;-68
2021/08/06 00:32:59;;;;;;;2.10;1.90;;;20.00;99.90;;;;;;2092718;28;20045;-68
2021/08/06 00:33:59;;;;;;;2.38;1.70;;;19.90;99.90;;;;;;2105287;28;20053;-68
2021/08/06 00:35:00;;;;;;;2.63;1.98;;;19.90;99.90;;;;;;2105281;28;20020;-68
2021/08/06 00:36:00;;;;;;;2.42;2.03;;;19.90;99.90;;;;;;2101329;28;20035;-68
2021/08/06 00:37:01;;;;;;;2.85;2.42;;;19.90;99.90;;;;;;2096417;28;20032;-68
2021/08/06 00:38:01;;;;;;;2.22;2.03;;;19.90;99.90;;;;;;2096887;28;20464;-68
2021/08/06 00:39:02;;;;;;;2.28;2.10;;;19.90;99.90;;;;;;2097003;28;20028;-68
2021/08/06 00:40:04;;;;;;;3.63;2.35;;;19.90;99.90;;;;;;2102033;28;20028;-67
2021/08/06 00:41:04;;;;;;;2.35;2.15;;;19.80;99.90;;;;;;2097708;28;20116;-68
2021/08/06 00:42:05;;;;;;;2.67;2.03;;;19.90;99.90;;;;;;2089315;28;20032;-68
2021/08/06 00:43:06;;;;;;;2.95;2.33;;;19.90;99.90;;;;;;2092355;28;20104;-67
2021/08/06 00:44:06;;;;;;;2.15;2.05;;;19.90;99.90;;;;;;2093738;28;20087;-67
2021/08/06 00:45:08;;;;;;;2.80;2.40;;;19.90;99.90;;;;;;2090950;28;20493;-67
2021/08/06 00:46:13;;;;;;;1.98;1.77;;;19.90;99.90;;;;;;2096612;28;20040;-67
2021/08/06 00:47:14;;;;;;;2.92;1.98;;;19.90;99.90;;;;;;2089036;28;20639;-67
2021/08/06 00:48:15;;;;;;;2.05;1.85;;;19.90;99.90;;;;;;2101710;28;20127;-68
2021/08/06 00:49:16;;;;;;;2.60;2.30;;;19.90;99.90;;;;;;2105237;28;20050;-68
2021/08/06 00:50:17;;;;;;;2.65;2.20;;;19.90;99.90;;;;;;2104608;28;20028;-68
2021/08/06 00:51:18;;;;;;;2.28;2.08;;;19.90;99.90;;;;;;2105209;28;20032;-68
2021/08/06 00:52:19;;;;;;;2.55;1.75;;;19.90;99.90;;;;;;2104858;28;20036;-68
2021/08/06 00:53:23;;;;;;;1.90;1.80;;;19.90;99.90;;;;;;2104727;28;20107;-68
2021/08/06 00:54:24;;;;;;;2.42;2.22;;;19.90;99.90;;;;;;2104990;28;20016;-68
2021/08/06 00:55:24;;;;;;;2.40;2.20;;;19.90;99.90;;;;;;2105156;28;20024;-68
2021/08/06 00:56:25;;;;;;;2.67;2.47;;;19.90;99.90;;;;;;2099289;28;20455;-68
2021/08/06 00:57:26;;;;;;;2.45;2.00;;;19.90;99.90;;;;;;2096863;28;20033;-68
2021/08/06 00:58:26;;;;;;;2.25;2.05;;;19.90;99.90;;;;;;2096557;28;20124;-68
2021/08/06 00:59:27;;;;;;;2.05;1.75;;;19.90;99.90;;;;;;2096712;28;20025;-68
2021/08/06 01:00:27;;;;;;;2.58;2.38;;;19.90;99.90;;;;;;2093228;28;20079;-68
2021/08/06 01:01:32;;;;;;;2.03;1.75;;;19.90;99.90;;;;;;2092635;28;20037;-68
2021/08/06 01:02:36;;;;;;;2.28;1.90;;;19.90;99.90;;;;;;2097154;28;20039;-68
2021/08/06 01:03:58;;;;;;;2.22;2.00;;;19.90;99.90;;;;;;2105229;28;20047;-68
2021/08/06 01:05:08;;;;;;;2.03;1.83;;;19.90;99.90;;;;;;2096751;28;20094;-68
2021/08/06 01:06:18;;;;;;;2.22;2.10;;;19.80;99.90;;;;;;2102911;28;20016;-68
2021/08/06 01:07:24;;;;;;;3.65;2.00;;;19.80;99.90;;;;;;2104976;28;20106;-68
2021/08/06 01:08:35;;;;;;;3.33;1.80;;;19.80;99.90;;;;;;2105352;28;20529;-68
2021/08/06 01:09:50;;;;;;;3.20;2.25;;;19.80;99.90;;;;;;2105033;28;20442;-68
2021/08/06 01:10:58;;;;;;;2.92;1.90;;;19.80;99.90;;;;;;2104788;28;20115;-68
2021/08/06 01:12:03;;;;;;;2.70;2.10;;;19.80;99.90;;;;;;2104951;28;20048;-68
2021/08/06 01:13:08;;;;;;;2.13;1.77;;;19.70;99.90;;;;;;2104709;28;20031;-68
2021/08/06 01:14:14;;;;;;;1.95;1.85;;;19.70;99.90;;;;;;2105378;28;20488;-68
2021/08/06 01:15:15;;;;;;;2.50;2.30;;;19.70;99.90;;;;;;2103518;28;20027;-68
2021/08/06 01:16:17;;;;;;;3.00;2.22;;;19.70;99.90;;;;;;2104885;28;20429;-68
2021/08/06 01:17:22;;;;;;;2.00;1.90;;;19.70;99.90;;;;;;2098325;28;20099;-68
2021/08/06 01:18:26;;;;;;;2.15;1.95;;;19.70;99.90;;;;;;2097412;28;20515;-68
2021/08/06 01:19:58;;;;;;;2.95;2.30;;;19.70;99.90;;;;;;2097720;28;20017;-68
2021/08/06 01:21:09;;;;;;;3.05;2.13;;;19.70;99.90;;;;;;2088431;28;20116;-68
2021/08/06 01:22:15;;;;;;;3.75;2.08;;;19.70;99.90;;;;;;2093138;28;20460;-68
2021/08/06 01:23:26;;;;;;;4.35;2.30;;;19.70;99.90;;;;;;2096155;28;20108;-68
2021/08/06 01:24:32;;;;;;;2.20;2.00;;;19.70;99.90;;;;;;2096883;28;20028;-68
2021/08/06 01:25:58;;;;;;;2.40;2.20;;;19.70;99.90;;;;;;2096110;28;20036;-68
2021/08/06 01:27:00;;;;;;;2.05;1.95;;;19.70;99.90;;;;;;2096406;28;20047;-68
2021/08/06 01:28:01;;;;;;;3.75;1.98;;;19.70;99.90;;;;;;2096151;28;20040;-68
2021/08/06 01:29:03;;;;;;;1.88;1.77;;;19.80;99.90;;;;;;2096582;28;20059;-68
2021/08/06 01:30:06;;;;;;;2.55;2.33;;;19.80;99.90;;;;;;2093557;28;20048;-68
2021/08/06 01:31:08;;;;;;;6.65;2.35;;;19.80;99.90;;;;;;2088517;28;20035;-68
2021/08/06 01:32:08;;;;;;;2.50;2.30;;;19.80;99.90;;;;;;2102290;28;20353;-68
2021/08/06 01:33:10;;;;;;;2.42;2.17;;;19.80;99.90;;;;;;2100577;28;20094;-68
2021/08/06 01:34:11;;;;;;;3.50;2.30;;;19.80;99.90;;;;;;2096042;28;20028;-68
2021/08/06 01:35:11;;;;;;;2.22;2.00;;;19.80;99.90;;;;;;2102085;28;20099;-68
2021/08/06 01:36:12;;;;;;;2.08;1.98;;;19.80;99.90;;;;;;2104723;28;20024;-68
2021/08/06 01:37:13;;;;;;;2.20;2.00;;;19.80;99.90;;;;;;2104910;28;20074;-68
2021/08/06 01:38:15;;;;;;;1.90;1.80;;;19.80;99.90;;;;;;2104608;28;20044;-68
2021/08/06 01:39:21;;;;;;;2.17;2.03;;;19.80;99.90;;;;;;2099872;28;20044;-68
2021/08/06 01:40:22;;;;;;;3.50;2.17;;;19.70;99.90;;;;;;2091462;28;20028;-68
2021/08/06 01:41:50;;;;;;;2.38;2.17;;;19.70;99.90;;;;;;2091167;28;20053;-68
2021/08/06 01:42:53;;;;;;;2.33;2.13;;;19.70;99.90;;;;;;2095368;28;20008;-68
2021/08/06 01:44:13;;;;;;;3.17;2.40;;;19.70;99.90;;;;;;2102543;28;20795;-68
2021/08/06 01:45:19;;;;;;;2.97;2.03;;;19.70;99.90;;;;;;2091127;28;20095;-68
2021/08/06 01:46:32;;;;;;;3.50;2.55;;;19.70;99.90;;;;;;2096414;28;20903;-68
2021/08/06 01:47:51;;;;;;;3.20;2.38;;;19.70;99.90;;;;;;2096553;28;20032;-68
2021/08/06 01:48:56;;;;;;;2.55;1.85;;;19.60;99.90;;;;;;2088518;28;20131;-68
2021/08/06 01:50:00;;;;;;;3.00;2.53;;;19.60;99.90;;;;;;2094738;28;20036;-68
2021/08/06 01:51:06;;;;;;;3.30;2.17;;;19.60;99.90;;;;;;2098577;28;20013;-68
2021/08/06 01:52:11;;;;;;;2.45;2.10;;;19.60;99.90;;;;;;2104222;28;20020;-68
2021/08/06 01:53:16;;;;;;;2.70;2.50;;;19.70;99.90;;;;;;2104484;28;20012;-68
2021/08/06 01:54:19;;;;;;;3.20;2.58;;;19.70;99.90;;;;;;2104792;28;20112;-68
2021/08/06 01:55:21;;;;;;;3.05;2.40;;;19.70;99.90;;;;;;2104464;28;20491;-68
2021/08/06 01:56:22;;;;;;;5.63;2.67;;;19.70;99.90;;;;;;2099519;28;20524;-68
2021/08/06 01:57:24;;;;;;;2.70;2.50;;;19.70;99.90;;;;;;2097320;28;20358;-68
2021/08/06 01:58:25;;;;;;;2.22;2.03;;;19.70;99.90;;;;;;2101068;28;20120;-68
2021/08/06 01:59:27;;;;;;;2.75;2.35;;;19.70;99.90;;;;;;2096490;28;20025;-68
2021/08/06 02:00:29;;;;;;;2.33;2.10;;;19.70;99.90;;;;;;2095889;28;20032;-68
2021/08/06 02:01:30;;;;;;;2.35;2.10;;;19.70;99.90;;;;;;2097151;28;20035;-68
2021/08/06 02:02:31;;;;;;;4.30;2.30;;;19.70;99.90;;;;;;2096990;28;20035;-68
2021/08/06 02:03:32;;;;;;;3.05;2.40;;;19.70;99.90;;;;;;2095641;28;20443;-68
2021/08/06 02:04:34;;;;;;;2.40;2.20;;;19.80;99.90;;;;;;2096218;28;20036;-68
2021/08/06 02:05:35;;;;;;;3.58;2.63;;;19.80;99.90;;;;;;2099500;28;20147;-68
2021/08/06 02:06:36;;;;;;;3.75;2.60;;;19.70;99.90;;;;;;2100407;28;20028;-68
2021/08/06 02:07:37;;;;;;;3.35;2.30;;;19.70;99.90;;;;;;2094755;28;20168;-68
2021/08/06 02:08:38;;;;;;;2.47;2.28;;;19.80;99.90;;;;;;2097264;28;20060;-68
2021/08/06 02:09:39;;;;;;;2.17;2.05;;;19.80;99.90;;;;;;2096930;28;20050;-68
2021/08/06 02:10:40;;;;;;;2.40;2.20;;;19.70;99.90;;;;;;2096774;28;20062;-68
2021/08/06 02:11:40;;;;;;;2.38;2.00;;;19.70;99.90;;;;;;2097305;28;20472;-68
2021/08/06 02:12:42;;;;;;;4.43;2.38;;;19.70;99.90;;;;;;2092662;28;20025;-68
2021/08/06 02:13:43;;;;;;;2.90;2.67;;;19.70;99.90;;;;;;2092132;28;20096;-68
2021/08/06 02:14:44;;;;;;;8.73;2.35;;;19.70;99.90;;;;;;2097590;28;20476;-68
2021/08/06 02:15:48;;;;;;;2.33;2.10;;;19.70;99.90;;;;;;2097245;28;20032;-68
2021/08/06 02:16:51;;;;;;;2.92;2.22;;;19.70;99.90;;;;;;2097582;28;20032;-68
2021/08/06 02:17:52;;;;;;;2.88;2.33;;;19.70;99.90;;;;;;2092292;28;20515;-68
2021/08/06 02:18:56;;;;;;;2.15;2.00;;;19.70;99.90;;;;;;2094175;28;20637;-68
2021/08/06 02:19:58;;;;;;;2.30;2.10;;;19.70;99.90;;;;;;2097284;28;20025;-68
2021/08/06 02:21:03;;;;;;;2.55;2.35;;;19.70;99.90;;;;;;2097687;28;20464;-68
2021/08/06 02:22:06;;;;;;;3.40;2.40;;;19.70;99.90;;;;;;2097248;28;20566;-68
2021/08/06 02:23:07;;;;;;;2.53;2.20;;;19.80;99.90;;;;;;2097231;28;20067;-68
2021/08/06 02:24:11;;;;;;;4.25;2.40;;;19.80;99.90;;;;;;2097359;28;20052;-68
2021/08/06 02:25:15;;;;;;;2.15;2.05;;;19.80;99.90;;;;;;2097472;28;20024;-68
2021/08/06 02:26:17;;;;;;;4.95;2.42;;;19.80;99.90;;;;;;2097166;28;20464;-68
2021/08/06 02:27:20;;;;;;;2.80;2.28;;;19.80;99.90;;;;;;2103877;28;20396;-68
2021/08/06 02:28:21;;;;;;;3.10;2.25;;;19.80;99.90;;;;;;2105225;28;20028;-68
2021/08/06 02:29:23;;;;;;;2.55;2.00;;;19.80;99.90;;;;;;2105833;28;20028;-68
2021/08/06 02:30:25;;;;;;;2.47;2.28;;;19.80;99.90;;;;;;2105657;28;20483;-68
2021/08/06 02:31:27;;;;;;;3.05;2.40;;;19.80;99.90;;;;;;2104086;28;20042;-68
2021/08/06 02:32:28;;;;;;;2.42;2.08;;;19.80;99.90;;;;;;2104824;28;20105;-68
2021/08/06 02:33:29;;;;;;;3.55;2.10;;;19.80;99.90;;;;;;2104894;28;20372;-68
2021/08/06 02:34:30;;;;;;;3.60;2.15;;;19.80;99.90;;;;;;2105897;28;20024;-68
2021/08/06 02:35:31;;;;;;;2.88;2.55;;;19.80;99.90;;;;;;2105717;28;20050;-68
2021/08/06 02:36:33;;;;;;;2.42;2.10;;;19.80;99.90;;;;;;2105657;28;20555;-68
2021/08/06 02:37:37;;;;;;;4.18;2.25;;;19.80;99.90;;;;;;2098821;28;20037;-68
2021/08/06 02:38:39;;;;;;;2.20;1.85;;;19.80;99.90;;;;;;2101080;28;20020;-68
2021/08/06 02:39:39;;;;;;;3.10;2.00;;;19.80;99.90;;;;;;2097493;28;20326;-68
2021/08/06 02:40:43;;;;;;;2.58;2.20;;;19.80;99.90;;;;;;2097027;28;20079;-68
2021/08/06 02:41:44;;;;;;;2.58;2.38;;;19.70;99.90;;;;;;2099263;28;20647;-68
2021/08/06 02:42:45;;;;;;;2.17;2.08;;;19.70;99.90;;;;;;2096856;28;20464;-68
2021/08/06 02:43:46;;;;;;;5.18;2.17;;;19.70;99.90;;;;;;2097492;28;20027;-68
2021/08/06 02:44:47;;;;;;;2.00;1.90;;;19.70;99.90;;;;;;2097285;28;20111;-68
2021/08/06 02:45:50;;;;;;;2.50;2.30;;;19.70;99.90;;;;;;2097275;28;20023;-68
2021/08/06 02:46:52;;;;;;;4.68;2.75;;;19.70;99.90;;;;;;2105764;28;20028;-68
2021/08/06 02:47:54;;;;;;;2.63;1.95;;;19.70;99.90;;;;;;2103800;28;20024;-68
2021/08/06 02:48:54;;;;;;;2.65;2.15;;;19.60;99.90;;;;;;2097390;28;20476;-68
2021/08/06 02:49:55;;;;;;;2.47;2.28;;;19.60;99.90;;;;;;2097450;28;20415;-68
2021/08/06 02:50:56;;;;;;;3.50;1.77;;;19.60;99.90;;;;;;2097115;28;20036;-68
2021/08/06 02:51:56;;;;;;;2.60;2.40;;;19.60;99.90;;;;;;2096822;28;20033;-68
2021/08/06 02:52:57;;;;;;;2.15;1.95;;;19.60;99.90;;;;;;2096805;28;20039;-68
2021/08/06 02:53:59;;;;;;;2.75;2.53;;;19.60;99.90;;;;;;2097562;28;20028;-68
2021/08/06 02:54:59;;;;;;;3.60;2.10;;;19.60;99.90;;;;;;2090617;28;20029;-68
2021/08/06 02:56:00;;;;;;;3.60;2.22;;;19.60;99.90;;;;;;2095739;28;20048;-68
2021/08/06 02:57:00;;;;;;;2.20;2.00;;;19.60;99.90;;;;;;2097421;28;20095;-68
2021/08/06 02:58:01;;;;;;;2.35;2.15;;;19.60;99.90;;;;;;2097413;28;20024;-68
2021/08/06 02:59:02;;;;;;;2.53;2.20;;;19.60;99.90;;;;;;2097226;28;20542;-68
2021/08/06 03:00:04;;;;;;;2.28;2.08;;;19.60;99.90;;;;;;2097194;28;20443;-68
2021/08/06 03:01:05;;;;;;;2.28;2.08;;;19.50;99.90;;;;;;2102685;28;20027;-68
2021/08/06 03:02:05;;;;;;;2.20;2.00;;;19.50;99.90;;;;;;2104454;28;20710;-68
2021/08/06 03:03:06;;;;;;;3.65;2.00;;;19.50;99.90;;;;;;2104188;28;20027;-68
2021/08/06 03:04:06;;;;;;;2.17;1.98;;;19.50;99.90;;;;;;2104883;28;20020;-68
2021/08/06 03:05:07;;;;;;;3.28;2.35;;;19.50;99.90;;;;;;2101915;28;20024;-68
2021/08/06 03:06:09;;;;;;;3.28;2.10;;;19.50;99.90;;;;;;2103326;28;20452;-68
2021/08/06 03:07:09;;;;;;;6.05;2.30;;;19.50;99.90;;;;;;2100440;28;20032;-68
2021/08/06 03:08:10;;;;;;;4.63;1.83;;;19.50;99.90;;;;;;2096362;28;20036;-68
2021/08/06 03:09:10;;;;;;;4.72;1.75;;;19.50;99.90;;;;;;2101271;28;20107;-68
2021/08/06 03:10:11;;;;;;;2.30;2.10;;;19.50;99.90;;;;;;2104437;28;20020;-67
2021/08/06 03:11:12;;;;;;;2.90;2.17;;;19.50;99.90;;;;;;2103797;28;20225;-68
2021/08/06 03:12:12;;;;;;;2.60;2.03;;;19.50;99.90;;;;;;2104142;28;20410;-68
2021/08/06 03:13:13;;;;;;;3.10;2.42;;;19.50;99.90;;;;;;2093717;28;20047;-68
2021/08/06 03:14:14;;;;;;;2.05;1.92;;;19.50;99.90;;;;;;2095839;28;20020;-68
2021/08/06 03:15:16;;;;;;;2.30;2.10;;;19.60;99.90;;;;;;2097372;28;20028;-68
2021/08/06 03:16:17;;;;;;;2.17;2.00;;;19.60;99.90;;;;;;2097476;28;20016;-68
2021/08/06 03:17:17;;;;;;;4.05;2.00;;;19.60;99.90;;;;;;2097509;28;20105;-68
2021/08/06 03:18:18;;;;;;;2.10;1.90;;;19.60;99.90;;;;;;2097507;28;20063;-68
2021/08/06 03:19:19;;;;;;;2.47;2.28;;;19.60;99.90;;;;;;2097430;28;20028;-68
2021/08/06 03:20:22;;;;;;;3.17;2.10;;;19.50;99.90;;;;;;2097652;28;20036;-68
2021/08/06 03:21:22;;;;;;;3.90;2.08;;;19.50;99.90;;;;;;2097208;28;20020;-68
2021/08/06 03:22:23;;;;;;;1.70;1.60;;;19.50;99.90;;;;;;2095666;28;20071;-68
2021/08/06 03:23:24;;;;;;;2.42;2.00;;;19.50;99.90;;;;;;2097650;28;20036;-68
2021/08/06 03:24:24;;;;;;;2.53;2.33;;;19.60;99.90;;;;;;2105689;28;20489;-68
2021/08/06 03:25:25;;;;;;;2.70;1.92;;;19.50;99.90;;;;;;2103652;28;20024;-68
2021/08/06 03:26:25;;;;;;;3.30;2.00;;;19.50;99.90;;;;;;2105750;28;20028;-68
2021/08/06 03:27:26;;;;;;;2.28;2.08;;;19.50;99.90;;;;;;2105650;28;20032;-68
2021/08/06 03:28:26;;;;;;;2.70;2.00;;;19.50;99.90;;;;;;2105955;28;20038;-68
2021/08/06 03:29:27;;;;;;;2.97;2.40;;;19.50;99.90;;;;;;2105666;28;20106;-68
2021/08/06 03:30:28;;;;;;;4.55;2.28;;;19.50;99.90;;;;;;2105644;28;20024;-68
2021/08/06 03:31:28;;;;;;;4.25;2.25;;;19.50;99.90;;;;;;2105798;28;20024;-68
2021/08/06 03:32:29;;;;;;;1.88;1.77;;;19.50;99.90;;;;;;2105713;28;20028;-68
2021/08/06 03:33:29;;;;;;;3.42;2.00;;;19.50;99.90;;;;;;2105617;28;20038;-68
2021/08/06 03:34:30;;;;;;;3.95;2.30;;;19.40;99.90;;;;;;2105595;28;20040;-68
2021/08/06 03:35:31;;;;;;;2.17;1.98;;;19.50;99.90;;;;;;2105785;28;20097;-68
2021/08/06 03:36:31;;;;;;;3.03;2.17;;;19.50;99.90;;;;;;2100379;28;20089;-68
2021/08/06 03:37:32;;;;;;;2.88;2.33;;;19.50;99.90;;;;;;2088852;28;20083;-68
2021/08/06 03:38:33;;;;;;;1.92;1.70;;;19.40;99.90;;;;;;2101617;28;20039;-68
2021/08/06 03:39:33;;;;;;;1.92;1.83;;;19.40;99.90;;;;;;2096709;28;20564;-68
2021/08/06 03:40:34;;;;;;;1.80;1.70;;;19.50;99.90;;;;;;2093498;28;20036;-68
2021/08/06 03:41:35;;;;;;;6.22;2.40;;;19.50;99.90;;;;;;2094220;28;20032;-68
2021/08/06 03:42:35;;;;;;;2.50;2.33;;;19.40;99.90;;;;;;2093649;28;20132;-68
2021/08/06 03:43:36;;;;;;;2.38;2.13;;;19.40;99.90;;;;;;2097706;28;20040;-68
2021/08/06 03:44:36;;;;;;;2.08;1.85;;;19.40;99.90;;;;;;2096336;28;20423;-68
2021/08/06 03:45:37;;;;;;;2.97;2.00;;;19.40;99.90;;;;;;2092825;28;20028;-68
2021/08/06 03:46:37;;;;;;;2.30;2.10;;;19.40;99.90;;;;;;2100509;28;20031;-68
2021/08/06 03:47:38;;;;;;;3.28;2.15;;;19.40;99.90;;;;;;2105597;28;20032;-68
2021/08/06 03:48:40;;;;;;;2.00;1.73;;;19.40;99.90;;;;;;2092797;28;20107;-68
2021/08/06 03:49:41;;;;;;;2.30;2.10;;;19.40;99.90;;;;;;2092801;28;20033;-68
2021/08/06 03:50:42;;;;;;;2.70;1.70;;;19.40;99.90;;;;;;2091740;28;20350;-68
2021/08/06 03:51:42;;;;;;;3.35;2.30;;;19.40;99.90;;;;;;2100269;28;20078;-68
2021/08/06 03:52:43;;;;;;;3.50;2.08;;;19.40;99.90;;;;;;2095449;28;20055;-68
2021/08/06 03:53:44;;;;;;;2.22;2.03;;;19.40;99.90;;;;;;2089312;28;20074;-68
2021/08/06 03:54:44;;;;;;;2.25;2.00;;;19.40;99.90;;;;;;2094712;28;20025;-68
2021/08/06 03:55:45;;;;;;;3.92;2.08;;;19.40;99.90;;;;;;2097047;28;20073;-68
2021/08/06 03:56:45;;;;;;;2.45;2.25;;;19.40;99.90;;;;;;2089072;28;20036;-68
2021/08/06 03:57:51;;;;;;;2.40;2.20;;;19.40;99.90;;;;;;2096432;28;20862;-68
2021/08/06 03:58:51;;;;;;;2.95;2.20;;;19.40;99.90;;;;;;2105069;28;20116;-68
2021/08/06 03:59:52;;;;;;;2.15;1.95;;;19.40;99.90;;;;;;2097132;28;20032;-68
2021/08/06 04:00:52;;;;;;;1.80;1.55;;;19.40;99.90;;;;;;2097460;28;20115;-68
2021/08/06 04:01:53;;;;;;;3.03;2.22;;;19.40;99.90;;;;;;2096915;28;20024;-68
2021/08/06 04:02:53;;;;;;;3.17;2.03;;;19.40;99.90;;;;;;2096775;28;20077;-68
2021/08/06 04:03:54;;;;;;;2.33;2.13;;;19.40;99.90;;;;;;2097159;28;20024;-68
2021/08/06 04:04:54;;;;;;;1.67;1.58;;;19.40;99.90;;;;;;2091845;28;20048;-68
2021/08/06 04:05:55;;;;;;;3.92;2.20;;;19.40;99.90;;;;;;2099430;28;20026;-68
2021/08/06 04:06:55;;;;;;;2.53;2.17;;;19.40;99.90;;;;;;2101128;28;20024;-68
2021/08/06 04:07:56;;;;;;;2.53;2.33;;;19.50;99.90;;;;;;2105672;28;20463;-68
2021/08/06 04:08:56;;;;;;;4.13;2.45;;;19.50;99.90;;;;;;2099910;28;20028;-68
2021/08/06 04:09:57;;;;;;;2.53;1.92;;;19.50;99.90;;;;;;2093570;28;20021;-68
2021/08/06 04:10:57;;;;;;;3.25;2.00;;;19.40;99.90;;;;;;2095341;28;20043;-68
2021/08/06 04:11:58;;;;;;;3.03;2.28;;;19.40;99.90;;;;;;2096952;28;20024;-68
2021/08/06 04:12:59;;;;;;;3.28;1.92;;;19.50;99.90;;;;;;2097016;28;20032;-68
2021/08/06 04:13:59;;;;;;;1.92;1.83;;;19.50;99.90;;;;;;2096633;28;20086;-68
2021/08/06 04:15:00;;;;;;;2.30;2.10;;;19.50;99.90;;;;;;2097145;28;20039;-68
2021/08/06 04:16:00;;;;;;;4.38;2.47;;;19.40;99.90;;;;;;2097041;28;20057;-68
2021/08/06 04:17:01;;;;;;;4.15;2.28;;;19.40;99.90;;;;;;2097164;28;20021;-68
2021/08/06 04:18:02;;;;;;;2.58;2.20;;;19.50;99.90;;;;;;2097097;28;20032;-68
2021/08/06 04:19:02;;;;;;;2.88;1.90;;;19.50;99.90;;;;;;2096847;28;20035;-68
2021/08/06 04:20:03;;;;;;;2.58;1.90;;;19.50;99.90;;;;;;2098044;28;20029;-68
2021/08/06 04:21:04;;;;;;;2.47;2.15;;;19.50;99.90;;;;;;2099179;28;20029;-68
2021/08/06 04:22:04;;;;;;;2.22;1.70;;;19.50;99.90;;;;;;2100850;28;20036;-68
2021/08/06 04:23:05;;;;;;;2.60;2.28;;;19.50;99.90;;;;;;2104681;28;20103;-68
2021/08/06 04:24:06;;;;;;;3.38;2.28;;;19.50;99.90;;;;;;2105181;28;20081;-68
2021/08/06 04:25:08;;;;;;;2.03;1.92;;;19.50;99.90;;;;;;2104359;28;20032;-68
2021/08/06 04:26:09;;;;;;;2.28;2.08;;;19.50;99.90;;;;;;2105198;28;20715;-68
2021/08/06 04:27:09;;;;;;;2.22;1.67;;;19.50;99.90;;;;;;2105451;28;20361;-68
2021/08/06 04:28:10;;;;;;;3.83;2.10;;;19.50;99.90;;;;;;2105149;28;20099;-68
2021/08/06 04:29:10;;;;;;;3.30;2.17;;;19.50;99.90;;;;;;2105343;28;20016;-68
2021/08/06 04:30:12;;;;;;;3.40;2.10;;;19.50;99.90;;;;;;2105204;28;20020;-68
2021/08/06 04:31:12;;;;;;;2.28;1.83;;;19.50;99.90;;;;;;2105641;28;20028;-68
2021/08/06 04:32:13;;;;;;;1.85;1.70;;;19.50;99.90;;;;;;2105036;28;20490;-68
2021/08/06 04:33:14;;;;;;;1.80;1.70;;;19.50;99.90;;;;;;2098451;28;20387;-68
2021/08/06 04:34:14;;;;;;;2.20;1.98;;;19.50;99.90;;;;;;2105344;28;20372;-68
2021/08/06 04:35:15;;;;;;;2.15;1.70;;;19.50;99.90;;;;;;2102910;28;20054;-68
2021/08/06 04:36:15;;;;;;;1.98;1.88;;;19.50;99.90;;;;;;2105066;28;20022;-68
2021/08/06 04:37:16;;;;;;;2.00;1.80;;;19.50;99.90;;;;;;2105552;28;20024;-68
2021/08/06 04:38:16;;;;;;;1.85;1.75;;;19.50;99.90;;;;;;2105160;28;20062;-68
2021/08/06 04:39:17;;;;;;;2.67;2.00;;;19.50;99.90;;;;;;2099920;28;20063;-68
2021/08/06 04:40:18;;;;;;;2.30;2.05;;;19.50;99.90;;;;;;2096056;28;20345;-68
2021/08/06 04:41:18;;;;;;;3.10;1.88;;;19.50;99.90;;;;;;2091739;28;20017;-68
2021/08/06 04:42:19;;;;;;;2.00;1.80;;;19.50;99.90;;;;;;2096779;28;20031;-68
2021/08/06 04:43:20;;;;;;;1.83;1.60;;;19.50;99.90;;;;;;2096297;28;20051;-68
2021/08/06 04:44:21;;;;;;;1.83;1.73;;;19.50;99.90;;;;;;2097053;28;20573;-68
2021/08/06 04:45:21;;;;;;;2.17;2.00;;;19.40;99.90;;;;;;2095224;28;20375;-68
2021/08/06 04:46:22;;;;;;;2.03;1.83;;;19.40;99.90;;;;;;2094119;28;20348;-68
2021/08/06 04:47:23;;;;;;;2.17;1.98;;;19.40;99.90;;;;;;2096242;28;20050;-68
2021/08/06 04:48:24;;;;;;;1.88;1.77;;;19.40;99.90;;;;;;2096834;28;20034;-68
2021/08/06 04:49:24;;;;;;;2.92;2.03;;;19.40;99.90;;;;;;2090038;28;20032;-68
2021/08/06 04:50:25;;;;;;;2.53;1.90;;;19.40;99.90;;;;;;2097088;28;20036;-68
2021/08/06 04:51:25;;;;;;;2.25;1.80;;;19.40;99.90;;;;;;2096659;28;20527;-68
2021/08/06 04:52:26;;;;;;;2.05;1.70;;;19.40;99.90;;;;;;2096592;28;20032;-68
2021/08/06 04:53:26;;;;;;;2.00;1.83;;;19.40;99.90;;;;;;2096114;28;20020;-68
2021/08/06 04:54:27;;;;;;;2.22;2.13;;;19.40;99.90;;;;;;2096824;28;20106;-68
2021/08/06 04:55:28;;;;;;;2.33;1.85;;;19.40;99.90;;;;;;2096777;28;20031;-68
2021/08/06 04:56:28;;;;;;;2.05;1.80;;;19.40;99.90;;;;;;2090875;28;20462;-68
2021/08/06 04:57:29;;;;;;;3.15;2.03;;;19.40;99.90;;;;;;2091130;28;20388;-68
2021/08/06 04:58:29;;;;;;;2.08;1.88;;;19.40;99.90;;;;;;2105120;28;20518;-68
2021/08/06 04:59:30;;;;;;;2.83;2.03;;;19.40;99.90;;;;;;2098833;28;20418;-68
2021/08/06 05:00:30;;;;;;;3.05;1.80;;;19.40;99.90;;;;;;2097346;28;20021;-68
2021/08/06 05:01:31;;;;;;;2.88;2.20;;;19.50;99.90;;;;;;2104870;28;20084;-68
2021/08/06 05:02:32;;;;;;;2.10;1.90;;;19.40;99.90;;;;;;2101776;28;20458;-68
2021/08/06 05:03:33;;;;;;;2.10;2.00;;;19.50;99.90;;;;;;2096504;28;20403;-68
2021/08/06 05:04:33;;;;;;;2.17;2.00;;;19.50;99.90;;;;;;2103849;28;20090;-69
2021/08/06 05:05:34;;;;;;;2.70;1.95;;;19.50;99.90;;;;;;2105023;28;20055;-68
2021/08/06 05:06:34;;;;;;;2.70;1.77;;;19.50;99.90;;;;;;2104902;28;20106;-68
2021/08/06 05:07:35;;;;;;;2.15;1.80;;;19.50;99.90;;;;;;2105069;28;20058;-68
2021/08/06 05:08:38;;;;;;;3.63;2.25;;;19.50;99.90;;;;;;2104827;28;20054;-68
2021/08/06 05:09:39;;;;;;;2.03;1.92;;;19.40;99.90;;;;;;2105188;28;20028;-68
2021/08/06 05:10:39;;;;;;;2.70;1.73;;;19.50;99.90;;;;;;2105033;28;20040;-68
2021/08/06 05:11:40;;;;;;;3.38;2.03;;;19.50;99.90;;;;;;2104150;28;20085;-68
2021/08/06 05:12:40;;;;;;;1.92;1.83;;;19.50;99.90;;;;;;2103409;28;20553;-68
2021/08/06 05:13:41;;;;;;;2.35;2.13;;;19.50;99.90;;;;;;2105030;28;20084;-68
2021/08/06 05:14:42;;;;;;;3.67;2.42;;;19.50;99.90;;;;;;2098553;28;20025;-68
2021/08/06 05:15:42;;;;;;;2.28;2.00;;;19.50;99.90;;;;;;2098907;28;20376;-68
2021/08/06 05:16:43;;;;;;;2.72;1.92;;;19.50;99.90;;;;;;2099961;28;20351;-68
2021/08/06 05:17:43;;;;;;;2.47;2.28;;;19.50;99.90;;;;;;2105199;28;20020;-68
2021/08/06 05:18:44;;;;;;;2.88;2.10;;;19.50;99.90;;;;;;2101005;28;20020;-68
2021/08/06 05:19:44;;;;;;;2.33;1.92;;;19.50;99.90;;;;;;2105014;28;20028;-68
2021/08/06 05:20:45;;;;;;;4.40;2.40;;;19.40;99.90;;;;;;2099250;28;20025;-69
2021/08/06 05:21:46;;;;;;;2.75;2.35;;;19.40;99.90;;;;;;2096419;28;20093;-69
2021/08/06 05:22:46;;;;;;;2.33;2.13;;;19.50;99.90;;;;;;2090936;28;20499;-69